createdAt,value
2019-06-15T00:02:22.555Z,14.70
2019-06-15T00:05:30.835Z,14.50
2019-06-15T00:08:39.308Z,15.33
2019-06-15T00:11:47.064Z,12.63
2019-06-15T00:14:54.744Z,17.00
2019-06-15T00:18:02.491Z,14.60
2019-06-15T00:21:10.476Z,13.30
2019-06-15T00:24:18.319Z,18.17
2019-06-15T00:27:26.082Z,16.33
2019-06-15T00:30:33.797Z,13.97
2019-06-15T00:33:42.091Z,15.00
2019-06-15T00:36:49.869Z,13.87
2019-06-15T00:39:57.715Z,14.20
2019-06-15T00:43:05.534Z,14.17
2019-06-15T00:46:13.292Z,13.67
2019-06-15T00:49:21.034Z,14.73
2019-06-15T00:52:28.782Z,20.37
2019-06-15T00:55:36.456Z,17.20
2019-06-15T00:58:44.519Z,15.63
2019-06-15T01:01:52.331Z,13.97
2019-06-15T01:05:00.135Z,16.20
2019-06-15T01:08:08.098Z,12.70
2019-06-15T01:11:19.684Z,16.73
2019-06-15T01:14:28.492Z,16.70
2019-06-15T01:17:36.580Z,12.80
2019-06-15T01:20:44.672Z,15.03
2019-06-15T01:23:52.426Z,20.43
2019-06-15T01:27:00.250Z,14.23
2019-06-15T01:30:08.766Z,12.80
2019-06-15T01:33:16.485Z,17.73
2019-06-15T01:36:24.305Z,16.83
2019-06-15T01:39:32.010Z,13.93
2019-06-15T01:42:39.848Z,14.33
2019-06-15T01:45:48.980Z,13.67
2019-06-15T01:48:57.040Z,12.87
2019-06-15T01:52:04.880Z,14.20
2019-06-15T01:55:20.854Z,15.60
2019-06-15T01:58:22.180Z,16.70
2019-06-15T02:01:30.216Z,13.90
2019-06-15T02:04:38.112Z,19.43
2019-06-15T02:07:45.961Z,17.20
2019-06-15T02:10:54.078Z,16.57
2019-06-15T02:14:01.875Z,15.43
2019-06-15T02:17:10.627Z,13.53
2019-06-15T02:20:18.854Z,14.87
2019-06-15T02:23:26.564Z,12.67
2019-06-15T02:26:35.465Z,14.80
2019-06-15T02:29:43.143Z,12.17
2019-06-15T02:32:51.174Z,13.27
2019-06-15T02:35:58.926Z,21.30
2019-06-15T02:39:08.048Z,16.80
2019-06-15T02:42:15.898Z,19.07
2019-06-15T02:45:24.402Z,18.73
2019-06-15T02:48:32.217Z,15.83
2019-06-15T02:51:40.144Z,18.20
2019-06-15T02:54:47.895Z,18.40
2019-06-15T02:57:55.723Z,15.63
2019-06-15T03:01:07.838Z,13.60
2019-06-15T03:04:15.509Z,13.87
2019-06-15T03:07:23.291Z,12.30
2019-06-15T03:10:31.303Z,16.03
2019-06-15T03:13:39.158Z,12.43
2019-06-15T03:16:47.071Z,11.17
2019-06-15T03:19:54.738Z,13.83
2019-06-15T03:23:02.503Z,19.77
2019-06-15T03:26:10.172Z,18.87
2019-06-15T03:29:17.928Z,13.87
2019-06-15T03:32:25.622Z,13.70
2019-06-15T03:35:33.429Z,16.03
2019-06-15T03:38:41.175Z,14.50
2019-06-15T03:41:48.924Z,13.63
2019-06-15T03:44:56.613Z,13.70
2019-06-15T03:48:04.570Z,15.47
2019-06-15T03:51:12.699Z,19.63
2019-06-15T03:54:20.459Z,16.73
2019-06-15T03:57:28.511Z,13.20
2019-06-15T04:01:10.063Z,18.30
2019-06-15T04:04:17.968Z,13.13
2019-06-15T04:07:25.669Z,14.10
2019-06-15T04:10:33.378Z,17.13
2019-06-15T04:13:41.303Z,18.80
2019-06-15T04:16:49.161Z,17.23
2019-06-15T04:19:56.859Z,13.87
2019-06-15T04:23:05.034Z,16.63
2019-06-15T04:26:12.899Z,16.47
2019-06-15T04:29:20.924Z,16.40
2019-06-15T04:32:28.603Z,20.00
2019-06-15T04:35:52.071Z,14.33
2019-06-15T04:38:59.848Z,11.63
2019-06-15T04:42:07.609Z,12.57
2019-06-15T04:45:15.454Z,13.50
2019-06-15T04:48:23.326Z,11.80
2019-06-15T04:51:31.042Z,16.17
2019-06-15T04:54:39.047Z,16.87
2019-06-15T04:57:46.728Z,16.50
2019-06-15T05:00:54.624Z,10.47
2019-06-15T05:04:02.451Z,17.50
2019-06-15T05:07:10.241Z,14.47
2019-06-15T05:10:18.174Z,12.57
2019-06-15T05:13:25.855Z,15.43
2019-06-15T05:16:33.685Z,16.17
2019-06-15T05:19:41.390Z,14.63
2019-06-15T05:22:49.174Z,13.27
2019-06-15T05:25:57.167Z,23.03
2019-06-15T05:29:05.524Z,15.00
2019-06-15T05:32:13.361Z,15.47
2019-06-15T05:35:23.576Z,13.47
2019-06-15T05:38:30.732Z,14.53
2019-06-15T05:41:39.494Z,19.37
2019-06-15T05:44:47.253Z,11.93
2019-06-15T05:47:54.942Z,13.67
2019-06-15T05:51:02.650Z,11.83
2019-06-15T05:54:10.407Z,9.23
2019-06-15T05:57:21.758Z,11.30
2019-06-15T06:00:27.689Z,16.83
2019-06-15T06:03:35.502Z,12.20
2019-06-15T06:06:44.453Z,14.37
2019-06-15T06:09:52.486Z,13.50
2019-06-15T06:13:00.209Z,17.27
2019-06-15T06:16:08.031Z,9.07
2019-06-15T06:19:16.167Z,9.33
2019-06-15T06:22:24.038Z,8.77
2019-06-15T06:25:32.089Z,7.97
2019-06-15T06:28:40.066Z,9.67
2019-06-15T06:31:48.890Z,5.67
2019-06-15T06:34:56.692Z,13.50
2019-06-15T06:38:04.549Z,9.53
2019-06-15T06:41:13.516Z,7.17
2019-06-15T06:44:23.059Z,7.83
2019-06-15T06:47:30.994Z,7.47
2019-06-15T06:50:44.895Z,7.83
2019-06-15T06:53:52.785Z,10.10
2019-06-15T06:57:00.949Z,16.73
2019-06-15T07:00:09.262Z,11.70
2019-06-15T07:03:17.722Z,10.43
2019-06-15T07:06:27.914Z,9.07
2019-06-15T07:09:36.003Z,9.03
2019-06-15T07:12:43.897Z,9.23
2019-06-15T07:15:51.896Z,7.93
2019-06-15T07:18:59.895Z,7.53
2019-06-15T07:22:07.899Z,5.53
2019-06-15T07:25:16.258Z,6.03
2019-06-15T07:28:24.021Z,7.17
2019-06-15T07:31:32.196Z,7.70
2019-06-15T07:34:39.905Z,6.90
2019-06-15T07:37:47.649Z,11.83
2019-06-15T07:40:55.428Z,11.80
2019-06-15T07:44:03.334Z,8.00
2019-06-15T07:47:11.105Z,8.73
2019-06-15T07:50:18.948Z,9.27
2019-06-15T07:53:26.708Z,10.87
2019-06-15T07:56:34.501Z,8.13
2019-06-15T07:59:42.279Z,8.30
2019-06-15T08:02:49.973Z,6.67
2019-06-15T08:05:57.752Z,10.20
2019-06-15T08:09:06.948Z,5.50
2019-06-15T08:12:14.809Z,5.90
2019-06-15T08:15:22.669Z,7.03
2019-06-15T08:18:30.461Z,7.90
2019-06-15T08:21:38.214Z,10.50
2019-06-15T08:24:47.039Z,13.87
2019-06-15T08:27:54.863Z,5.27
2019-06-15T08:31:02.664Z,3.63
2019-06-15T08:34:10.573Z,5.87
2019-06-15T08:37:19.219Z,4.77
2019-06-15T08:40:27.623Z,3.90
2019-06-15T08:43:35.516Z,8.27
2019-06-15T08:46:43.490Z,5.57
2019-06-15T08:49:53.833Z,4.23
2019-06-15T08:53:01.701Z,9.53
2019-06-15T08:56:09.447Z,7.03
2019-06-15T08:59:17.242Z,7.30
2019-06-15T09:02:27.253Z,4.07
2019-06-15T09:05:35.033Z,8.97
2019-06-15T09:08:42.690Z,7.43
2019-06-15T09:11:50.492Z,5.77
2019-06-15T09:14:58.339Z,7.27
2019-06-15T09:18:06.478Z,3.30
2019-06-15T09:21:19.887Z,3.17
2019-06-15T09:24:27.748Z,7.00
2019-06-15T09:27:35.694Z,8.07
2019-06-15T09:30:43.807Z,8.03
2019-06-15T09:33:51.562Z,5.43
2019-06-15T09:36:59.248Z,5.43
2019-06-15T09:40:09.011Z,9.93
2019-06-15T09:43:22.289Z,5.20
2019-06-15T09:46:30.723Z,2.60
2019-06-15T09:49:38.558Z,3.87
2019-06-15T09:52:46.288Z,2.40
2019-06-15T09:55:54.171Z,3.63
2019-06-15T09:59:02.222Z,5.37
2019-06-15T10:02:10.256Z,3.23
2019-06-15T10:05:18.783Z,4.90
2019-06-15T10:08:26.516Z,2.20
2019-06-15T10:11:34.520Z,3.70
2019-06-15T10:14:42.757Z,5.50
2019-06-15T10:17:50.611Z,5.03
2019-06-15T10:20:58.500Z,6.13
2019-06-15T10:24:06.320Z,6.77
2019-06-15T10:27:14.172Z,4.70
2019-06-15T10:30:22.117Z,3.27
2019-06-15T10:33:29.795Z,6.80
2019-06-15T10:36:37.455Z,5.40
2019-06-15T10:39:45.452Z,3.40
2019-06-15T10:42:53.390Z,9.73
2019-06-15T10:46:01.169Z,3.73
2019-06-15T10:49:09.293Z,3.93
2019-06-15T10:52:17.190Z,5.10
2019-06-15T10:55:24.977Z,6.73
2019-06-15T10:58:33.978Z,3.43
2019-06-15T11:01:41.954Z,4.27
2019-06-15T11:04:49.769Z,5.17
2019-06-15T11:07:57.611Z,5.00
2019-06-15T11:11:27.399Z,6.20
2019-06-15T11:14:35.519Z,2.80
2019-06-15T11:17:43.825Z,7.00
2019-06-15T11:20:51.584Z,4.93
2019-06-15T11:24:02.283Z,5.23
2019-06-15T11:27:10.183Z,5.80
2019-06-15T11:30:18.021Z,4.57
2019-06-15T11:33:28.990Z,3.83
2019-06-15T11:36:37.161Z,5.47
2019-06-15T11:39:45.279Z,2.70
2019-06-15T11:42:53.067Z,6.03
2019-06-15T11:46:01.231Z,5.30
2019-06-15T11:49:09.140Z,3.73
2019-06-15T11:52:16.985Z,8.80
2019-06-15T11:55:38.642Z,7.77
2019-06-15T11:58:35.229Z,3.13
2019-06-15T12:01:42.915Z,3.60
2019-06-15T12:04:58.506Z,5.50
2019-06-15T12:08:00.401Z,5.47
2019-06-15T12:11:08.562Z,5.30
2019-06-15T12:14:16.430Z,4.40
2019-06-15T12:17:24.677Z,2.63
2019-06-15T12:20:33.577Z,4.03
2019-06-15T12:23:41.791Z,2.97
2019-06-15T12:26:50.598Z,4.30
2019-06-15T12:29:58.471Z,2.50
2019-06-15T12:33:06.421Z,3.00
2019-06-15T12:36:19.416Z,3.80
2019-06-15T12:39:28.640Z,12.77
2019-06-15T12:42:38.800Z,2.80
2019-06-15T12:45:53.183Z,3.67
2019-06-15T12:53:39.976Z,5.03
2019-06-15T13:01:29.242Z,8.97
2019-06-15T13:04:50.428Z,7.30
2019-06-15T13:08:22.811Z,7.33
2019-06-15T13:11:44.435Z,5.53
2019-06-15T13:15:56.810Z,8.00
2019-06-15T13:19:27.741Z,2.17
2019-06-15T13:22:50.342Z,5.10
2019-06-15T13:25:58.879Z,3.83
2019-06-15T13:29:11.441Z,2.93
2019-06-15T13:32:29.756Z,6.20
2019-06-15T13:35:57.391Z,7.20
2019-06-15T13:39:07.682Z,5.87
2019-06-15T13:42:25.266Z,7.10
2019-06-15T13:45:59.693Z,4.67
2019-06-15T13:49:09.350Z,3.83
2019-06-15T13:52:38.922Z,2.17
2019-06-15T13:55:48.414Z,2.83
2019-06-15T13:58:56.762Z,4.23
2019-06-15T14:02:05.143Z,7.30
2019-06-15T14:05:13.466Z,3.97
2019-06-15T14:08:30.680Z,5.80
2019-06-15T14:11:59.335Z,4.57
2019-06-15T14:15:17.159Z,1.77
2019-06-15T14:18:28.266Z,3.07
2019-06-15T14:21:43.138Z,2.83
2019-06-15T14:24:59.207Z,5.50
2019-06-15T14:28:10.860Z,8.47
2019-06-15T14:31:19.388Z,3.07
2019-06-15T14:34:28.682Z,1.90
2019-06-15T14:37:37.030Z,2.30
2019-06-15T14:40:45.800Z,5.03
2019-06-15T14:44:04.415Z,3.73
2019-06-15T14:47:26.360Z,5.20
2019-06-15T14:50:37.384Z,6.57
2019-06-15T14:53:49.908Z,4.07
2019-06-15T14:56:56.640Z,5.77
2019-06-15T15:00:08.512Z,2.07
2019-06-15T15:03:17.152Z,3.13
2019-06-15T15:06:26.098Z,4.93
2019-06-15T15:09:34.030Z,3.30
2019-06-15T15:12:42.190Z,2.93
2019-06-15T15:15:53.085Z,4.73
2019-06-15T15:19:00.133Z,3.17
2019-06-15T15:22:09.098Z,2.93
2019-06-15T15:25:17.204Z,4.23
2019-06-15T15:28:25.317Z,7.23
2019-06-15T15:31:33.326Z,4.13
2019-06-15T15:34:41.386Z,5.80
2019-06-15T15:37:49.581Z,5.07
2019-06-15T15:40:57.999Z,1.80
2019-06-15T15:44:06.261Z,2.47
2019-06-15T15:47:16.218Z,4.87
2019-06-15T15:50:26.298Z,4.07
2019-06-15T15:53:33.970Z,2.57
2019-06-15T15:56:41.853Z,8.70
2019-06-15T15:59:49.768Z,2.47
2019-06-15T16:02:57.534Z,6.90
2019-06-15T16:06:05.871Z,2.93
2019-06-15T16:09:16.638Z,2.07
2019-06-15T16:12:23.350Z,5.13
2019-06-15T16:15:31.329Z,4.50
2019-06-15T16:18:39.587Z,4.20
2019-06-15T16:21:47.569Z,2.70
2019-06-15T16:24:56.480Z,5.53
2019-06-15T16:28:06.869Z,3.37
2019-06-15T16:31:17.776Z,1.73
2019-06-15T16:34:24.156Z,3.93
2019-06-15T16:37:32.195Z,6.40
2019-06-15T16:40:40.747Z,1.50
2019-06-15T16:43:48.790Z,6.07
2019-06-15T16:46:57.037Z,3.10
2019-06-15T16:50:06.914Z,1.77
2019-06-15T16:53:16.798Z,5.30
2019-06-15T16:56:26.774Z,2.70
2019-06-15T16:59:36.471Z,2.33
2019-06-15T17:02:46.845Z,2.27
2019-06-15T17:05:57.190Z,1.70
2019-06-15T17:09:06.065Z,4.70
2019-06-15T17:12:16.971Z,1.73
2019-06-15T17:15:26.346Z,4.63
2019-06-15T17:18:36.459Z,6.60
2019-06-15T17:21:46.568Z,3.13
2019-06-15T17:24:56.555Z,1.73
2019-06-15T17:28:06.885Z,1.93
2019-06-15T17:31:16.763Z,2.30
2019-06-15T17:34:27.539Z,2.73
2019-06-15T17:37:37.708Z,2.20
2019-06-15T17:40:46.301Z,6.20
2019-06-15T17:43:56.526Z,3.37
2019-06-15T17:47:07.077Z,2.53
2019-06-15T17:50:16.953Z,3.13
2019-06-15T17:53:26.238Z,5.30
2019-06-15T17:56:36.467Z,2.70
2019-06-15T17:59:43.851Z,3.47
2019-06-15T18:02:51.892Z,7.37
2019-06-15T18:06:00.686Z,7.03
2019-06-15T18:09:08.795Z,1.67
2019-06-15T18:12:17.237Z,2.10
2019-06-15T18:15:26.566Z,6.03
2019-06-15T18:18:37.124Z,3.97
2019-06-15T18:21:46.699Z,5.63
2019-06-15T18:24:56.693Z,1.77
2019-06-15T18:28:06.379Z,3.33
2019-06-15T18:31:16.343Z,4.07
2019-06-15T18:34:23.928Z,2.37
2019-06-15T18:37:32.083Z,1.97
2019-06-15T18:40:39.830Z,2.67
2019-06-15T18:43:47.809Z,7.67
2019-06-15T18:46:56.484Z,2.33
2019-06-15T18:50:07.591Z,2.30
2019-06-15T18:53:14.702Z,2.20
2019-06-15T18:56:22.575Z,3.37
2019-06-15T18:59:30.676Z,7.80
2019-06-15T19:02:38.930Z,3.87
2019-06-15T19:05:47.186Z,2.57
2019-06-15T19:08:57.458Z,3.33
2019-06-15T19:12:07.041Z,2.40
2019-06-15T19:15:16.796Z,5.93
2019-06-15T19:18:26.116Z,3.80
2019-06-15T19:21:34.788Z,3.63
2019-06-15T19:24:47.325Z,1.80
2019-06-15T19:27:52.940Z,2.43
2019-06-15T19:31:01.053Z,3.80
2019-06-15T19:34:09.041Z,3.17
2019-06-15T19:37:16.864Z,5.67
2019-06-15T19:40:26.753Z,1.63
2019-06-15T19:43:36.303Z,3.50
2019-06-15T19:46:47.455Z,1.87
2019-06-15T19:49:56.855Z,5.30
2019-06-15T19:53:06.742Z,3.93
2019-06-15T19:56:13.871Z,2.20
2019-06-15T19:59:21.804Z,2.27
2019-06-15T20:02:29.705Z,4.53
2019-06-15T20:05:37.648Z,5.10
2019-06-15T20:08:46.879Z,1.97
2019-06-15T20:11:56.025Z,3.33
2019-06-15T20:15:06.336Z,7.90
2019-06-15T20:18:14.547Z,1.53
2019-06-15T20:21:22.440Z,2.27
2019-06-15T20:24:30.629Z,2.40
2019-06-15T20:27:38.533Z,2.70
2019-06-15T20:30:47.321Z,4.67
2019-06-15T20:33:57.016Z,3.73
2019-06-15T20:37:05.130Z,2.40
2019-06-15T20:40:16.379Z,2.70
2019-06-15T20:43:27.082Z,2.50
2019-06-15T20:46:36.927Z,2.00
2019-06-15T20:49:46.295Z,3.40
2019-06-15T20:52:56.178Z,3.00
2019-06-15T20:56:06.444Z,3.20
2019-06-15T20:59:13.602Z,3.33
2019-06-15T21:02:21.544Z,9.10
2019-06-15T21:05:37.304Z,4.73
2019-06-15T21:08:39.366Z,3.60
2019-06-15T21:11:47.686Z,3.07
2019-06-15T21:14:56.194Z,3.67
2019-06-15T21:18:06.589Z,2.03
2019-06-15T21:21:15.973Z,1.60
2019-06-15T21:24:26.240Z,2.03
2019-06-15T21:27:36.762Z,2.10
2019-06-15T21:30:47.495Z,1.90
2019-06-15T21:33:56.316Z,1.77
2019-06-15T21:37:06.468Z,2.23
2019-06-15T21:40:16.012Z,3.83
2019-06-15T21:43:26.836Z,1.90
2019-06-15T21:46:36.146Z,2.30
2019-06-15T21:49:46.565Z,2.60
2019-06-15T21:52:56.455Z,2.33
2019-06-15T21:56:07.097Z,3.10
2019-06-15T21:59:16.432Z,2.63
2019-06-15T22:02:26.623Z,2.17
2019-06-15T22:05:36.823Z,4.17
2019-06-15T22:08:44.284Z,4.03
2019-06-15T22:11:52.096Z,2.20
2019-06-15T22:15:00.183Z,2.40
2019-06-15T22:18:08.311Z,2.43
2019-06-15T22:21:16.273Z,2.43
2019-06-15T22:24:26.638Z,2.30
2019-06-15T22:27:36.182Z,2.77
2019-06-15T22:30:45.996Z,2.43
2019-06-15T22:33:53.407Z,2.07
2019-06-15T22:37:01.556Z,2.77
2019-06-15T22:40:11.663Z,3.20
2019-06-15T22:43:21.537Z,3.47
2019-06-15T22:46:29.502Z,2.27
2019-06-15T22:49:37.446Z,2.37
2019-06-15T22:52:47.342Z,2.20
2019-06-15T22:55:57.021Z,3.50
2019-06-15T22:59:06.253Z,2.30
2019-06-15T23:02:16.622Z,2.30
2019-06-15T23:05:26.193Z,2.90
2019-06-15T23:08:36.159Z,3.47
2019-06-15T23:11:43.336Z,2.33
2019-06-15T23:14:51.197Z,2.00
2019-06-15T23:17:59.115Z,2.07
2019-06-15T23:21:07.132Z,3.07
2019-06-15T23:24:16.625Z,4.63
2019-06-15T23:27:25.444Z,4.33
2019-06-15T23:30:34.344Z,5.87
2019-06-15T23:33:43.179Z,1.70
2019-06-15T23:36:57.090Z,4.37
2019-06-15T23:40:22.583Z,1.73
2019-06-15T23:43:30.395Z,5.33
2019-06-15T23:46:38.373Z,3.27
2019-06-15T23:49:46.198Z,4.77
2019-06-15T23:52:54.244Z,2.30
2019-06-15T23:56:02.068Z,5.13
2019-06-15T23:59:09.918Z,5.73
